Meteo Giornale » Osservazioni meteo Francia » Nizza

ore: 15:30 - Osservazioni Meteo Nizza
Lat. 43° 39' N Lon. 7° 12' E Alt. 4 metri s.l.m.

molto_nuvoloso Europe/Paris

11 °C

Molto Nuvoloso

Temp. 24 Ore

6 °C

15 °C

Nord-Ovest

13 Km/h

Dew point 0 °C

Umidità 46 %

Visibilità  10 Km

Il sole sorge alle ore 07:59

Il sole tramonta alle ore 17:22

Data e Ora Cielo e Fenomeni T °C DP °C Um. % Pres. hPa Vis. km Vento km/h
Oggi h: 15:30 molto_nuvoloso Molto Nuvoloso 11 0 46 1018 10 NO 13
Oggi h: 15:00 molto_nuvoloso Molto Nuvoloso 11 0 46 1018 10 N/NO 11.1
Oggi h: 14:30 molto_nuvoloso Molto Nuvoloso 11 -0 46 1019 10 N/NO 14.8
Oggi h: 14:00 molto_nuvoloso Molto Nuvoloso 11 -1 43 1019 10 N/NO 14.8
Oggi h: 13:30 molto_nuvoloso Molto Nuvoloso 10 -1 46 1019 10 N/NO 18.5
Oggi h: 13:00 molto_nuvoloso Molto Nuvoloso 10 -1 46 1020 10 N/NO 18.5
Oggi h: 12:30 molto_nuvoloso Molto Nuvoloso 10 -2 42 1020 10 N/NO 16.7
Oggi h: 12:00 molto_nuvoloso Molto Nuvoloso 9 -2 45 1020 10 N/NO 22.2
Oggi h: 11:30 molto_nuvoloso Molto Nuvoloso 9 -2 45 1021 10 N/NO 22.2
Oggi h: 11:00 molto_nuvoloso Molto Nuvoloso 8 -3 45 1021 10 N/NO 24
Oggi h: 10:30 molto_nuvoloso Molto Nuvoloso 8 -3 45 1021 10 N/NO 24
Oggi h: 10:00 molto_nuvoloso Molto Nuvoloso 7 -3 48 1021 10 N/NO 24
Oggi h: 09:30 molto_nuvoloso Molto Nuvoloso 7 -3 48 1021 10 N/NO 22.2
Oggi h: 09:00 molto_nuvoloso Molto Nuvoloso 7 -3 48 1020 10 N/NO 22.2
Oggi h: 08:30 molto_nuvoloso Molto Nuvoloso 6 -3 52 1020 10 N/NO 20.3
Oggi h: 08:00 molto_nuvoloso Molto Nuvoloso 6 -3 52 1020 10 N/NO 27.8
Oggi h: 07:30 molto_nuvoloso Molto Nuvoloso 6 -3 52 1020 10 N/NO 24
Oggi h: 07:00 molto_nuvoloso Molto Nuvoloso 6 -3 52 1020 10 N/NO 24
Oggi h: 06:30 molto_nuvoloso Molto Nuvoloso 6 -3 52 1020 10 N/NO 22.2
Oggi h: 06:00 molto_nuvoloso Molto Nuvoloso 6 -3 52 1020 10 N/NO 24
Oggi h: 05:30 molto_nuvoloso Molto Nuvoloso 6 -3 52 1020 10 N/NO 24
Oggi h: 05:00 nuvoloso Nuvoloso 6 -3 52 1020 10 N/NO 20.3
Oggi h: 04:30 nuvoloso Nuvoloso 6 -3 52 1020 10 N/NO 18.5
Oggi h: 03:30 poco_nuvoloso Poco Nuvoloso 6 -3 52 1021 10 N/NO 27.8
Oggi h: 03:00 poco_nuvoloso Poco Nuvoloso 7 -3 48 1021 10 N/NO 25.9
Oggi h: 02:30 sereno Sereno 7 -3 48 1021 10 N/NO 24
Oggi h: 02:00 sereno Sereno 7 -3 48 1020 10 N/NO 22.2
Oggi h: 01:30 sereno Sereno 7 -3 48 1020 10 N/NO 24
Oggi h: 01:00 sereno Sereno 7 -2 52 1020 10 N/NO 22.2
Oggi h: 00:30 sereno Sereno 7 -2 52 1020 10 N/NO 20.3
Oggi h: 00:00 sereno Sereno 7 -2 52 1021 10 N/NO 16.7
Ieri h: 23:30 sereno Sereno 8 -2 49 1021 10 N 13
Ieri h: 23:00 sereno Sereno 7 -2 52 1020 10 N/NO 16.7
Ieri h: 22:30 sereno Sereno 8 -2 49 1020 10 N/NO 14.8
Ieri h: 22:00 sereno Sereno 7 -1 56 1020 10 N/NO 16.7
Ieri h: 21:30 sereno Sereno 8 -1 52 1020 10 N/NO 20.3
Ieri h: 21:00 sereno Sereno 8 -0 56 1019 10 N/NO 18.5
Ieri h: 20:30 sereno Sereno 8 0 56 1019 10 N/NO 18.5
Ieri h: 20:00 sereno Sereno 8 1 61 1019 10 N/NO 14.8
Ieri h: 19:30 sereno Sereno 8 2 65 1019 10 NO 13
Ieri h: 19:00 sereno Sereno 10 3 61 1019 10 N 5.5
Ieri h: 18:30 sereno Sereno 10 3 61 1019 10 NO 7.4
Ieri h: 18:00 sereno Sereno 13 5 58 1018 10 SO 13
Ieri h: 17:30 sereno Sereno 14 5 54 1018 10 S/SO 16.7
Ieri h: 17:00 sereno Sereno 14 6 58 1018 10 S/SO 16.7
Ieri h: 16:30 sereno Sereno 14 5 54 1018 10 S/SO 16.7
Ieri h: 16:00 sereno Sereno 15 5 51 1018 10 S/SO 13